KLRJ/LRJ METAR and TAF weather

Enter ICAO airport designator
Station Type Date Time Source
KLRJ METAR 2023/02/05 23:15 UTC NOAA

KLRJ 052315Z AUTO 00000KT 10SM CLR M03/M03 A3007 RMK AO2


Station Type Date Time Source
KLRJ Decoded METAR 2023/02/05 23:15 UTC NOAA

Le Mars, Le Mars Municipal Airport, IA, United States (KLRJ) 42-46-41N 096-11-37W
Feb 05, 2023 - 06:15 PM EST / 2023.02.05 2315 UTC
Wind: Calm:0
Visibility: 10 mile(s):0
Sky conditions: clear
Temperature: 26 F (-3 C)
Dew Point: 26 F (-3 C)
Relative Humidity: 100%
Pressure (altimeter): 30.07 in. Hg (1018 hPa)
ob: KLRJ 052315Z AUTO 00000KT 10SM CLR M03/M03 A3007 RMK AO2
cycle: 23

Station Type Date Time Source
KLRJ TAF UTC NOAA

Error!

Example: see airport list